createdAt,value
2018-09-15T00:01:41.632Z,13.28
2018-09-15T00:04:09.776Z,11.25
2018-09-15T00:06:38.058Z,13.65
2018-09-15T00:09:08.243Z,12.03
2018-09-15T00:11:36.373Z,11.75
2018-09-15T00:14:04.446Z,11.55
2018-09-15T00:16:32.546Z,12.10
2018-09-15T00:19:00.551Z,11.12
2018-09-15T00:21:28.626Z,11.70
2018-09-15T00:23:56.817Z,11.30
2018-09-15T00:26:25.078Z,11.08
2018-09-15T00:28:53.058Z,11.50
2018-09-15T00:31:21.216Z,12.05
2018-09-15T00:33:49.301Z,11.65
2018-09-15T00:36:17.687Z,13.38
2018-09-15T00:38:45.756Z,12.10
2018-09-15T00:41:13.846Z,12.15
2018-09-15T00:43:41.888Z,15.15
2018-09-15T00:46:09.965Z,11.63
2018-09-15T00:48:38.019Z,13.25
2018-09-15T00:51:06.016Z,11.40
2018-09-15T00:53:34.173Z,11.22
2018-09-15T00:56:02.232Z,11.53
2018-09-15T00:58:30.322Z,10.95
2018-09-15T01:00:58.446Z,11.80
2018-09-15T01:03:26.471Z,12.03
2018-09-15T01:05:54.517Z,12.13
2018-09-15T01:08:22.538Z,11.22
2018-09-15T01:10:50.674Z,11.55
2018-09-15T01:13:18.760Z,13.13
2018-09-15T01:15:46.805Z,11.95
2018-09-15T01:18:14.894Z,12.10
2018-09-15T01:20:42.975Z,12.55
2018-09-15T01:23:11.474Z,11.93
2018-09-15T01:26:42.832Z,11.40
2018-09-15T01:29:11.117Z,11.50
2018-09-15T01:31:39.149Z,13.28
2018-09-15T01:34:07.408Z,12.40
2018-09-15T01:36:35.412Z,11.45
2018-09-15T01:39:05.644Z,11.28
2018-09-15T01:41:34.319Z,12.20
2018-09-15T01:44:02.622Z,12.63
2018-09-15T01:46:30.670Z,12.63
2018-09-15T01:48:58.609Z,11.65
2018-09-15T01:51:26.851Z,12.98
2018-09-15T01:53:55.149Z,12.53
2018-09-15T01:56:23.242Z,11.95
2018-09-15T01:58:51.345Z,13.15
2018-09-15T02:01:19.374Z,12.60
2018-09-15T02:03:47.372Z,13.45
2018-09-15T02:06:15.506Z,14.50
2018-09-15T02:08:43.597Z,12.03
2018-09-15T02:11:11.658Z,13.35
2018-09-15T02:13:39.808Z,16.40
2018-09-15T02:16:08.121Z,12.50
2018-09-15T02:18:36.113Z,13.75
2018-09-15T02:21:05.144Z,14.30
2018-09-15T02:23:33.354Z,13.95
2018-09-15T02:26:01.631Z,13.13
2018-09-15T02:28:29.724Z,13.08
2018-09-15T02:30:57.764Z,12.60
2018-09-15T02:33:25.857Z,14.33
2018-09-15T02:35:53.961Z,12.10
2018-09-15T02:38:21.958Z,12.60
2018-09-15T02:40:50.035Z,14.00
2018-09-15T02:43:20.686Z,13.25
2018-09-15T02:45:48.555Z,13.93
2018-09-15T02:48:16.754Z,14.73
2018-09-15T02:50:44.774Z,13.68
2018-09-15T02:53:12.877Z,15.32
2018-09-15T02:55:40.925Z,13.38
2018-09-15T02:58:09.057Z,13.62
2018-09-15T03:00:37.066Z,13.95
2018-09-15T03:03:05.143Z,11.45
2018-09-15T03:05:33.149Z,13.83
2018-09-15T03:08:01.282Z,11.57
2018-09-15T03:10:29.402Z,13.40
2018-09-15T03:12:57.718Z,12.68
2018-09-15T03:15:25.721Z,12.50
2018-09-15T03:17:53.887Z,11.80
2018-09-15T03:20:22.039Z,12.10
2018-09-15T03:22:50.449Z,12.58
2018-09-15T03:25:18.698Z,12.45
2018-09-15T03:27:46.677Z,12.58
2018-09-15T03:30:14.842Z,14.10
2018-09-15T03:32:42.939Z,12.80
2018-09-15T03:35:11.411Z,13.83
2018-09-15T03:37:39.670Z,11.68
2018-09-15T03:40:07.763Z,11.83
2018-09-15T03:42:35.886Z,12.50
2018-09-15T03:45:03.912Z,13.98
2018-09-15T03:47:31.984Z,13.43
2018-09-15T03:50:00.363Z,12.28
2018-09-15T03:52:28.400Z,15.72
2018-09-15T03:54:56.473Z,14.58
2018-09-15T03:57:24.536Z,15.90
2018-09-15T03:59:52.679Z,14.20
2018-09-15T04:02:20.590Z,12.98
2018-09-15T04:04:48.844Z,15.00
2018-09-15T04:07:17.141Z,13.70
2018-09-15T04:09:45.108Z,12.98
2018-09-15T04:12:13.332Z,14.40
2018-09-15T04:14:41.354Z,15.15
2018-09-15T04:17:09.453Z,12.28
2018-09-15T04:19:37.494Z,13.83
2018-09-15T04:22:05.499Z,13.90
2018-09-15T04:24:34.581Z,12.90
2018-09-15T04:27:02.629Z,13.00
2018-09-15T04:29:30.716Z,18.87
2018-09-15T04:31:58.794Z,14.25
2018-09-15T04:34:26.869Z,13.85
2018-09-15T04:36:54.873Z,16.17
2018-09-15T04:39:23.064Z,14.68
2018-09-15T04:41:51.420Z,13.70
2018-09-15T04:44:19.368Z,13.83
2018-09-15T04:46:47.525Z,19.67
2018-09-15T04:49:15.642Z,13.90
2018-09-15T04:51:43.665Z,13.15
2018-09-15T04:54:11.727Z,13.53
2018-09-15T04:56:39.810Z,15.03
2018-09-15T04:59:07.757Z,13.55
2018-09-15T05:01:35.957Z,15.88
2018-09-15T05:04:04.057Z,15.35
2018-09-15T05:06:32.173Z,16.05
2018-09-15T05:09:00.046Z,15.08
2018-09-15T05:11:28.421Z,14.65
2018-09-15T05:13:56.637Z,19.55
2018-09-15T05:16:24.872Z,20.80
2018-09-15T05:18:53.081Z,20.10
2018-09-15T05:21:21.137Z,21.93
2018-09-15T05:23:49.254Z,24.25
2018-09-15T05:26:17.266Z,30.75
2018-09-15T05:28:45.238Z,29.77
2018-09-15T05:31:13.440Z,29.50
2018-09-15T05:33:41.421Z,25.40
2018-09-15T05:36:10.470Z,23.95
2018-09-15T05:38:38.551Z,23.70
2018-09-15T05:41:06.604Z,23.05
2018-09-15T05:43:34.697Z,22.62
2018-09-15T05:46:02.780Z,23.45
2018-09-15T05:48:30.844Z,24.20
2018-09-15T05:50:58.836Z,22.10
2018-09-15T05:53:26.886Z,20.57
2018-09-15T05:55:54.976Z,21.37
2018-09-15T05:58:22.967Z,19.52
2018-09-15T06:00:51.584Z,22.45
2018-09-15T06:03:19.933Z,14.98
2018-09-15T06:05:48.008Z,15.95
2018-09-15T06:08:15.998Z,16.80
2018-09-15T06:10:44.008Z,16.30
2018-09-15T06:13:12.076Z,17.48
2018-09-15T06:15:40.237Z,17.42
2018-09-15T06:18:08.307Z,18.10
2018-09-15T06:20:36.425Z,18.20
2018-09-15T06:23:04.432Z,18.90
2018-09-15T06:25:32.517Z,17.45
2018-09-15T06:28:00.636Z,16.90
2018-09-15T06:30:28.688Z,17.65
2018-09-15T06:32:56.730Z,16.60
2018-09-15T06:35:24.964Z,15.45
2018-09-15T06:37:53.263Z,16.55
2018-09-15T06:40:21.261Z,16.75
2018-09-15T06:42:49.276Z,17.42
2018-09-15T06:45:17.381Z,16.57
2018-09-15T06:47:45.382Z,16.63
2018-09-15T06:50:13.574Z,23.17
2018-09-15T06:52:41.601Z,18.53
2018-09-15T06:55:09.714Z,17.77
2018-09-15T06:57:37.744Z,17.53
2018-09-15T07:00:06.082Z,20.27
2018-09-15T07:02:34.216Z,17.87
2018-09-15T07:05:02.112Z,18.60
2018-09-15T07:07:34.022Z,17.60
2018-09-15T07:10:02.159Z,17.00
2018-09-15T07:12:30.224Z,17.93
2018-09-15T07:14:59.001Z,16.80
2018-09-15T07:17:26.839Z,18.07
2018-09-15T07:19:55.171Z,27.97
2018-09-15T07:22:23.379Z,15.63
2018-09-15T07:24:51.478Z,18.17
2018-09-15T07:27:19.659Z,18.77
2018-09-15T07:29:47.889Z,18.27
2018-09-15T07:32:15.978Z,15.33
2018-09-15T07:34:44.044Z,16.23
2018-09-15T07:37:12.089Z,16.03
2018-09-15T07:39:40.285Z,16.10
2018-09-15T07:42:08.750Z,17.23
2018-09-15T07:44:36.979Z,18.30
2018-09-15T07:47:05.062Z,16.03
2018-09-15T07:49:33.441Z,16.30
2018-09-15T07:52:01.508Z,17.87
2018-09-15T07:54:29.449Z,17.23
2018-09-15T07:56:57.606Z,17.57
2018-09-15T07:59:26.038Z,15.23
2018-09-15T08:01:53.972Z,15.23
2018-09-15T08:04:22.040Z,15.97
2018-09-15T08:06:50.298Z,15.97
2018-09-15T08:09:18.862Z,15.40
2018-09-15T08:11:47.262Z,15.87
2018-09-15T08:14:15.355Z,15.20
2018-09-15T08:16:43.438Z,15.37
2018-09-15T08:19:12.721Z,14.57
2018-09-15T08:21:40.765Z,12.87
2018-09-15T08:24:09.298Z,14.57
2018-09-15T08:26:37.546Z,13.70
2018-09-15T08:29:05.572Z,15.20
2018-09-15T08:31:33.572Z,13.80
2018-09-15T08:34:01.728Z,13.20
2018-09-15T08:36:29.734Z,10.87
2018-09-15T08:38:57.777Z,12.43
2018-09-15T08:41:26.057Z,8.93
2018-09-15T08:43:54.325Z,9.40
2018-09-15T08:46:22.303Z,15.87
2018-09-15T08:48:50.479Z,9.10
2018-09-15T08:51:18.608Z,9.83
2018-09-15T08:53:47.045Z,9.97
2018-09-15T08:56:15.322Z,9.63
2018-09-15T08:58:43.465Z,18.93
2018-09-15T09:01:11.741Z,20.30
2018-09-15T09:03:39.844Z,9.17
2018-09-15T09:06:08.941Z,10.20
2018-09-15T09:08:37.206Z,11.23
2018-09-15T09:11:05.368Z,13.10
2018-09-15T09:13:33.975Z,11.20
2018-09-15T09:16:02.050Z,9.70
2018-09-15T09:18:33.353Z,10.63
2018-09-15T09:21:01.199Z,9.40
2018-09-15T09:23:29.318Z,11.00
2018-09-15T09:25:57.493Z,10.33
2018-09-15T09:28:25.372Z,8.77
2018-09-15T09:30:53.424Z,9.07
2018-09-15T09:33:21.642Z,8.90
2018-09-15T09:35:49.673Z,10.53
2018-09-15T09:38:17.738Z,9.30
2018-09-15T09:40:46.102Z,11.13
2018-09-15T09:43:14.248Z,7.40
2018-09-15T09:45:42.242Z,8.30
2018-09-15T09:48:10.619Z,8.60
2018-09-15T09:50:38.720Z,8.90
2018-09-15T09:53:07.997Z,8.53
2018-09-15T09:55:36.101Z,6.87
2018-09-15T09:58:04.453Z,7.90
2018-09-15T10:00:37.998Z,7.50
2018-09-15T10:03:07.065Z,7.83
2018-09-15T10:05:35.203Z,6.83
2018-09-15T10:08:03.486Z,8.60
2018-09-15T10:10:31.584Z,8.17
2018-09-15T10:12:59.633Z,7.50
2018-09-15T10:15:27.694Z,14.80
2018-09-15T10:17:55.798Z,8.03
2018-09-15T10:20:23.839Z,6.40
2018-09-15T10:22:51.829Z,7.10
2018-09-15T10:25:20.424Z,6.67
2018-09-15T10:27:48.742Z,7.53
2018-09-15T10:30:16.740Z,7.43
2018-09-15T10:32:44.735Z,7.50
2018-09-15T10:35:12.915Z,7.27
2018-09-15T10:37:40.956Z,7.30
2018-09-15T10:40:09.105Z,6.33
2018-09-15T10:42:37.488Z,6.53
2018-09-15T10:45:05.790Z,7.63
2018-09-15T10:47:33.903Z,7.83
2018-09-15T10:50:02.005Z,6.43
2018-09-15T10:52:30.332Z,5.30
2018-09-15T10:54:58.392Z,6.60
2018-09-15T10:57:26.460Z,6.40
2018-09-15T10:59:54.510Z,6.20
2018-09-15T11:02:22.604Z,6.73
2018-09-15T11:04:50.665Z,8.57
2018-09-15T11:07:18.702Z,8.33
2018-09-15T11:09:46.778Z,5.73
2018-09-15T11:12:14.786Z,6.90
2018-09-15T11:14:42.851Z,6.67
2018-09-15T11:17:12.232Z,6.30
2018-09-15T11:19:40.341Z,7.27
2018-09-15T11:22:08.377Z,6.77
2018-09-15T11:24:36.429Z,7.23
2018-09-15T11:27:05.021Z,8.20
2018-09-15T11:29:32.842Z,6.77
2018-09-15T11:32:02.477Z,7.37
2018-09-15T11:34:30.647Z,7.37
2018-09-15T11:36:58.576Z,6.60
2018-09-15T11:39:26.724Z,8.63
2018-09-15T11:41:55.631Z,7.63
2018-09-15T11:44:23.820Z,6.57
2018-09-15T11:46:51.635Z,8.20
2018-09-15T11:49:19.633Z,7.03
2018-09-15T11:51:47.800Z,6.90
2018-09-15T11:54:16.231Z,7.90
2018-09-15T11:56:44.466Z,6.97
2018-09-15T11:59:12.549Z,7.87
2018-09-15T12:01:40.633Z,8.47
2018-09-15T12:04:08.758Z,8.17
2018-09-15T12:06:37.069Z,7.53
2018-09-15T12:09:07.018Z,9.10
2018-09-15T12:11:35.161Z,8.70
2018-09-15T12:14:03.583Z,8.43
2018-09-15T12:16:32.739Z,9.83
2018-09-15T12:19:00.858Z,10.07
2018-09-15T12:21:28.921Z,10.00
2018-09-15T12:23:56.846Z,8.90
2018-09-15T12:26:25.059Z,9.53
2018-09-15T12:28:53.090Z,9.77
2018-09-15T12:31:21.149Z,9.90
2018-09-15T12:33:49.246Z,9.00
2018-09-15T12:36:17.305Z,9.43
2018-09-15T12:38:45.424Z,10.33
2018-09-15T12:41:13.436Z,10.07
2018-09-15T12:43:41.441Z,10.13
2018-09-15T12:46:09.426Z,10.30
2018-09-15T12:48:37.709Z,9.90
2018-09-15T12:51:05.776Z,10.33
2018-09-15T12:53:33.789Z,9.87
2018-09-15T12:56:01.924Z,9.40
2018-09-15T12:58:31.217Z,9.47
2018-09-15T13:00:59.240Z,9.87
2018-09-15T13:03:27.313Z,9.97
2018-09-15T13:05:55.433Z,9.97
2018-09-15T13:08:23.494Z,10.13
2018-09-15T13:10:51.634Z,9.50
2018-09-15T13:13:19.488Z,9.17
2018-09-15T13:15:47.685Z,9.67
2018-09-15T13:18:19.427Z,9.87
2018-09-15T13:20:47.387Z,8.90
2018-09-15T13:23:15.571Z,9.87
2018-09-15T13:25:43.630Z,9.30
2018-09-15T13:28:11.744Z,10.53
2018-09-15T13:30:39.788Z,10.77
2018-09-15T13:33:07.804Z,8.97
2018-09-15T13:35:35.932Z,9.97
2018-09-15T13:38:03.901Z,10.03
2018-09-15T13:40:32.458Z,10.73
2018-09-15T13:43:00.775Z,10.30
2018-09-15T13:45:28.583Z,11.37
2018-09-15T13:47:56.876Z,12.20
2018-09-15T13:50:27.197Z,12.40
2018-09-15T13:52:55.498Z,11.80
2018-09-15T13:55:23.550Z,14.00
2018-09-15T13:57:51.664Z,12.57
2018-09-15T14:00:20.232Z,11.57
2018-09-15T14:02:48.243Z,12.50
2018-09-15T14:05:16.454Z,13.67
2018-09-15T14:07:44.463Z,12.67
2018-09-15T14:10:19.007Z,12.93
2018-09-15T14:12:41.100Z,13.40
2018-09-15T14:15:09.437Z,15.43
2018-09-15T14:17:38.018Z,15.33
2018-09-15T14:20:06.448Z,13.53
2018-09-15T14:22:34.877Z,14.57
2018-09-15T14:25:04.115Z,14.23
2018-09-15T14:27:32.869Z,13.77
2018-09-15T14:30:01.362Z,13.47
2018-09-15T14:32:29.537Z,15.17
2018-09-15T14:34:57.672Z,15.50
2018-09-15T14:37:25.594Z,14.77
2018-09-15T14:39:53.777Z,13.33
2018-09-15T14:42:21.837Z,14.00
2018-09-15T14:44:49.788Z,14.40
2018-09-15T14:47:18.427Z,14.90
2018-09-15T14:49:46.629Z,13.93
2018-09-15T14:52:14.755Z,15.93
2018-09-15T14:54:42.806Z,13.77
2018-09-15T14:57:10.914Z,13.50
2018-09-15T14:59:38.871Z,14.63
2018-09-15T15:02:07.030Z,14.30
2018-09-15T15:04:35.083Z,14.90
2018-09-15T15:07:03.160Z,14.37
2018-09-15T15:09:31.222Z,14.87
2018-09-15T15:11:59.234Z,14.67
2018-09-15T15:14:27.378Z,14.60
2018-09-15T15:16:55.445Z,16.37
2018-09-15T15:19:23.575Z,16.33
2018-09-15T15:21:51.637Z,16.00
2018-09-15T15:24:19.728Z,17.73
2018-09-15T15:26:47.749Z,17.20
2018-09-15T15:29:16.069Z,19.40
2018-09-15T15:31:44.260Z,19.07
2018-09-15T15:34:12.546Z,17.27
2018-09-15T15:36:40.544Z,19.37
2018-09-15T15:39:08.834Z,17.07
2018-09-15T15:41:37.174Z,16.37
2018-09-15T15:44:06.479Z,15.87
2018-09-15T15:46:34.724Z,15.87
2018-09-15T15:49:03.614Z,16.07
2018-09-15T15:51:32.143Z,16.03
2018-09-15T15:54:00.202Z,15.93
2018-09-15T15:56:28.309Z,16.13
2018-09-15T15:58:56.433Z,16.53
2018-09-15T16:01:24.285Z,17.03
2018-09-15T16:03:53.511Z,18.57
2018-09-15T16:06:21.793Z,15.83
2018-09-15T16:08:50.657Z,18.00
2018-09-15T16:11:19.283Z,18.80
2018-09-15T16:13:47.581Z,17.77
2018-09-15T16:16:15.609Z,17.53
2018-09-15T16:18:43.832Z,16.70
2018-09-15T16:21:12.062Z,19.00
2018-09-15T16:23:40.115Z,17.30
2018-09-15T16:26:09.489Z,18.80
2018-09-15T16:28:37.482Z,17.20
2018-09-15T16:31:06.809Z,17.73
2018-09-15T16:33:34.774Z,18.17
2018-09-15T16:36:02.551Z,16.10
2018-09-15T16:38:30.821Z,17.30
2018-09-15T16:40:59.154Z,14.80
2018-09-15T16:43:27.856Z,14.73
2018-09-15T16:45:55.706Z,13.50
2018-09-15T16:48:23.885Z,13.60
2018-09-15T16:50:51.888Z,13.80
2018-09-15T16:53:20.054Z,14.90
2018-09-15T16:55:48.064Z,14.60
2018-09-15T16:58:16.078Z,15.80
2018-09-15T17:00:44.103Z,16.77
2018-09-15T17:03:13.186Z,15.67
2018-09-15T17:05:41.401Z,16.47
2018-09-15T17:08:09.761Z,14.90
2018-09-15T17:10:37.767Z,16.50
2018-09-15T17:13:05.953Z,18.13
2018-09-15T17:15:34.229Z,16.73
2018-09-15T17:18:02.181Z,18.03
2018-09-15T17:20:30.398Z,20.30
2018-09-15T17:23:00.822Z,18.93
2018-09-15T17:25:28.948Z,20.50
2018-09-15T17:27:56.998Z,19.37
2018-09-15T17:30:25.156Z,22.57
2018-09-15T17:32:53.206Z,21.37
2018-09-15T17:35:22.193Z,21.17
2018-09-15T17:37:50.225Z,21.80
2018-09-15T17:40:18.213Z,21.70
2018-09-15T17:42:46.360Z,20.87
2018-09-15T17:45:14.484Z,20.27
2018-09-15T17:47:42.568Z,21.67
2018-09-15T17:50:11.891Z,20.60
2018-09-15T17:52:39.928Z,19.80
2018-09-15T17:55:08.075Z,19.60
2018-09-15T17:57:35.876Z,20.13
2018-09-15T18:00:04.423Z,22.50
2018-09-15T18:02:32.400Z,21.77
2018-09-15T18:05:00.509Z,22.53
2018-09-15T18:07:28.660Z,22.10
2018-09-15T18:09:56.796Z,25.10
2018-09-15T18:12:26.056Z,23.00
2018-09-15T18:14:54.006Z,23.12
2018-09-15T18:24:19.859Z,23.38
2018-09-15T18:26:48.125Z,25.48
2018-09-15T18:29:16.478Z,23.12
2018-09-15T18:31:44.791Z,25.97
2018-09-15T18:34:12.799Z,23.95
2018-09-15T18:36:41.345Z,23.85
2018-09-15T18:39:10.172Z,23.55
2018-09-15T18:41:38.449Z,23.70
2018-09-15T18:44:06.309Z,25.97
2018-09-15T18:46:34.436Z,25.12
2018-09-15T18:49:02.478Z,26.70
2018-09-15T18:51:30.537Z,25.23
2018-09-15T18:53:58.603Z,25.20
2018-09-15T18:56:26.671Z,26.35
2018-09-15T18:58:54.818Z,25.55
2018-09-15T19:01:22.889Z,25.62
2018-09-15T19:03:51.001Z,26.75
2018-09-15T19:06:21.160Z,24.90
2018-09-15T19:08:49.113Z,27.05
2018-09-15T19:11:17.275Z,25.20
2018-09-15T19:13:45.474Z,23.50
2018-09-15T19:16:13.790Z,24.32
2018-09-15T19:18:41.802Z,25.08
2018-09-15T19:21:09.970Z,24.47
2018-09-15T19:23:38.274Z,23.15
2018-09-15T19:26:06.345Z,24.70
2018-09-15T19:28:34.393Z,24.10
2018-09-15T19:31:02.492Z,23.12
2018-09-15T19:33:30.657Z,23.70
2018-09-15T19:35:58.996Z,24.43
2018-09-15T19:38:27.290Z,24.10
2018-09-15T19:40:55.347Z,23.52
2018-09-15T19:43:23.464Z,24.05
2018-09-15T19:45:51.429Z,22.77
2018-09-15T19:48:19.478Z,22.67
2018-09-15T19:50:47.672Z,23.62
2018-09-15T19:53:15.645Z,23.12
2018-09-15T19:55:43.856Z,22.90
2018-09-15T19:58:11.912Z,22.35
2018-09-15T20:00:39.978Z,23.38
2018-09-15T20:03:08.035Z,22.20
2018-09-15T20:05:36.160Z,24.75
2018-09-15T20:08:04.063Z,22.13
2018-09-15T20:10:32.264Z,22.10
2018-09-15T20:13:01.623Z,23.22
2018-09-15T20:15:29.343Z,20.88
2018-09-15T20:17:57.119Z,21.40
2018-09-15T20:20:24.210Z,20.92
2018-09-15T20:22:53.322Z,19.60
2018-09-15T20:25:22.085Z,21.77
2018-09-15T20:27:50.367Z,21.85
2018-09-15T20:30:18.640Z,20.43
2018-09-15T20:32:46.776Z,19.62
2018-09-15T20:35:14.793Z,19.12
2018-09-15T20:37:42.990Z,18.85
2018-09-15T20:40:11.248Z,21.20
2018-09-15T20:42:40.634Z,18.67
2018-09-15T20:45:09.069Z,20.12
2018-09-15T20:47:37.651Z,19.92
2018-09-15T20:50:07.749Z,18.57
2018-09-15T20:52:35.875Z,19.20
2018-09-15T20:55:04.092Z,20.85
2018-09-15T20:57:32.342Z,20.02
2018-09-15T21:00:00.333Z,21.05
2018-09-15T21:02:28.488Z,19.00
2018-09-15T21:04:56.612Z,20.77
2018-09-15T21:07:24.612Z,19.92
2018-09-15T21:09:52.702Z,21.27
2018-09-15T21:12:22.024Z,19.25
2018-09-15T21:14:50.049Z,17.32
2018-09-15T21:17:18.146Z,17.37
2018-09-15T21:19:46.217Z,19.17
2018-09-15T21:22:15.565Z,18.55
2018-09-15T21:24:43.566Z,18.37
2018-09-15T21:27:12.377Z,19.35
2018-09-15T21:29:40.658Z,19.90
2018-09-15T21:32:08.723Z,20.00
2018-09-15T21:34:36.790Z,19.02
2018-09-15T21:37:04.905Z,18.57
2018-09-15T21:39:32.938Z,19.05
2018-09-15T21:42:00.994Z,19.25
2018-09-15T21:44:29.154Z,17.57
2018-09-15T21:46:57.430Z,19.05
2018-09-15T21:49:25.500Z,19.82
2018-09-15T21:51:53.629Z,18.98
2018-09-15T21:54:21.640Z,19.00
2018-09-15T21:56:49.756Z,19.42
2018-09-15T21:59:17.795Z,19.23
2018-09-15T22:01:45.936Z,19.35
2018-09-15T22:04:19.944Z,20.75
2018-09-15T22:06:49.633Z,19.23
2018-09-15T22:09:17.784Z,20.10
2018-09-15T22:11:45.849Z,19.27
2018-09-15T22:14:13.881Z,18.65
2018-09-15T22:16:44.226Z,20.82
2018-09-15T22:19:13.029Z,18.62
2018-09-15T22:21:41.216Z,20.97
2018-09-15T22:24:09.253Z,24.80
2018-09-15T22:26:39.473Z,19.02
2018-09-15T22:29:08.324Z,21.95
2018-09-15T22:31:36.562Z,20.12
2018-09-15T22:34:04.666Z,19.80
2018-09-15T22:36:32.681Z,22.10
2018-09-15T22:39:00.879Z,19.98
2018-09-15T22:41:29.127Z,21.62
2018-09-15T22:43:57.185Z,21.25
2018-09-15T22:46:25.294Z,21.97
2018-09-15T22:48:54.564Z,20.55
2018-09-15T22:51:22.666Z,21.20
2018-09-15T22:53:50.711Z,19.95
2018-09-15T22:56:18.789Z,20.57
2018-09-15T22:58:50.970Z,20.20
2018-09-15T23:01:19.302Z,20.10
2018-09-15T23:03:47.302Z,20.17
2018-09-15T23:06:15.378Z,20.45
2018-09-15T23:08:43.477Z,20.02
2018-09-15T23:11:11.430Z,19.90
2018-09-15T23:13:39.712Z,20.75
2018-09-15T23:16:07.969Z,21.97
2018-09-15T23:18:36.610Z,22.85
2018-09-15T23:21:04.899Z,24.10
2018-09-15T23:23:32.693Z,25.20
2018-09-15T23:26:00.898Z,23.00
2018-09-15T23:28:28.931Z,20.88
2018-09-15T23:30:57.030Z,22.67
2018-09-15T23:33:25.088Z,23.32
2018-09-15T23:35:53.208Z,21.57
2018-09-15T23:38:21.199Z,21.10
2018-09-15T23:40:49.295Z,19.67
2018-09-15T23:43:17.440Z,21.12
2018-09-15T23:45:45.441Z,21.17
2018-09-15T23:48:13.505Z,19.32
2018-09-15T23:50:41.563Z,18.55
2018-09-15T23:53:09.711Z,17.70
2018-09-15T23:55:37.754Z,18.17
2018-09-15T23:58:06.806Z,19.60
